Time;durP1;ratioP1;P1;durP2;ratioP2;P2;SDS_P1;SDS_P2;PMS_P1;PMS_P2;Temp;Humidity;BMP_temperature;BMP_pressure;BME280_temperature;BME280_humidity;BME280_pressure;Samples;Min_cycle;Max_cycle;Signal;HPM_P1;HPM_P2
2022/09/04 00:00:49;;;;;;;;;;;;;;;22.52;80.08;97378.58;631017;224;63857;-69
2022/09/04 00:03:18;;;;;;;;;;;;;;;22.51;80.08;97377.78;631216;224;66885;-69
2022/09/04 00:05:48;;;;;;;;;;;;;;;22.50;80.00;97373.48;631438;224;67542;-68
2022/09/04 00:08:16;;;;;;;;;;;;;;;22.51;80.04;97380.45;631519;224;64838;-69
2022/09/04 00:10:52;;;;;;;;;;;;;;;22.50;79.93;97378.83;631108;224;67894;-69
2022/09/04 00:13:21;;;;;;;;;;;;;;;22.51;80.04;97385.02;631374;224;67015;-68
2022/09/04 00:16:06;;;;;;;;;;;;;;;22.51;80.01;97382.34;631469;224;64954;-68
2022/09/04 00:18:36;;;;;;;;;;;;;;;22.51;79.98;97391.17;631476;224;67398;-68
2022/09/04 00:21:07;;;;;;;;;;;;;;;22.51;80.01;97395.73;631441;224;66849;-68
2022/09/04 00:23:42;;;;;;;;;;;;;;;22.51;79.93;97401.09;631393;224;63745;-68
2022/09/04 00:26:28;;;;;;;;;;;;;;;22.50;79.94;97407.50;631523;224;66911;-68
2022/09/04 00:28:57;;;;;;;;;;;;;;;22.50;80.03;97405.62;631457;224;66919;-68
2022/09/04 00:31:37;;;;;;;;;;;;;;;22.50;79.95;97410.17;631439;224;64702;-68
2022/09/04 00:34:12;;;;;;;;;;;;;;;22.50;79.99;97412.85;631449;224;68196;-68
2022/09/04 00:36:41;;;;;;;;;;;;;;;22.50;79.93;97418.21;631454;224;65769;-69
2022/09/04 00:39:10;;;;;;;;;;;;;;;22.49;79.95;97417.41;631455;224;64944;-68
2022/09/04 00:41:55;;;;;;;;;;;;;;;22.49;79.96;97414.73;631219;224;67141;-68
2022/09/04 00:44:27;;;;;;;;;;;;;;;22.50;79.98;97420.89;631458;224;68424;-68
2022/09/04 00:47:08;;;;;;;;;;;;;;;22.49;79.91;97416.62;631269;224;65086;-68
2022/09/04 00:49:39;;;;;;;;;;;;;;;22.49;79.88;97419.30;631463;224;67936;-68
2022/09/04 00:52:08;;;;;;;;;;;;;;;22.48;79.88;97431.89;631121;224;66976;-68
2022/09/04 00:54:40;;;;;;;;;;;;;;;22.49;79.91;97430.80;631435;224;65153;-68
2022/09/04 00:57:18;;;;;;;;;;;;;;;22.49;79.83;97427.33;631481;224;64920;-68
2022/09/04 00:59:48;;;;;;;;;;;;;;;22.48;79.76;97421.18;631479;224;64691;-69
2022/09/04 01:02:23;;;;;;;;;;;;;;;22.49;79.80;97427.33;630527;224;63758;-68
2022/09/04 01:04:52;;;;;;;;;;;;;;;22.49;79.86;97430.01;630484;224;64968;-69
2022/09/04 01:07:32;;;;;;;;;;;;;;;22.48;79.72;97431.89;631052;224;64710;-69
2022/09/04 01:10:07;;;;;;;;;;;;;;;22.48;79.70;97439.09;631165;224;64301;-68
2022/09/04 01:12:39;;;;;;;;;;;;;;;22.48;79.67;97439.92;631432;224;64964;-69
2022/09/04 01:15:26;;;;;;;;;;;;;;;22.48;79.62;97428.38;631518;224;64593;-68
2022/09/04 01:17:58;;;;;;;;;;;;;;;22.48;79.58;97444.45;616687;229;62808;-68
2022/09/04 01:20:33;;;;;;;;;;;;;;;22.48;79.67;97439.09;616455;230;64917;-68
2022/09/04 01:23:02;;;;;;;;;;;;;;;22.48;79.59;97449.81;621960;224;65223;-68
2022/09/04 01:25:47;;;;;;;;;;;;;;;22.48;79.59;97431.06;631062;224;63712;-68
2022/09/04 01:28:19;;;;;;;;;;;;;;;22.48;79.53;97433.74;631437;224;67186;-69
2022/09/04 01:30:48;;;;;;;;;;;;;;;22.47;79.61;97432.94;630535;224;64765;-68
2022/09/04 01:33:34;;;;;;;;;;;;;;;22.47;79.54;97434.83;630471;224;62867;-68
2022/09/04 01:36:03;;;;;;;;;;;;;;;22.47;79.56;97437.50;631446;224;64916;-68
2022/09/04 01:38:32;;;;;;;;;;;;;;;22.46;79.50;97427.88;631430;224;64794;-68
2022/09/04 01:41:06;;;;;;;;;;;;;;;22.47;79.75;97432.14;631481;224;62800;-68
2022/09/04 01:43:33;;;;;;;;;;;;;;;22.47;79.80;97432.14;631456;224;67320;-68
2022/09/04 01:46:14;;;;;;;;;;;;;;;22.46;79.63;97422.52;631433;224;66666;-69
2022/09/04 01:48:56;;;;;;;;;;;;;;;22.46;79.69;97423.31;630596;224;65275;-68
2022/09/04 01:51:41;;;;;;;;;;;;;;;22.45;79.65;97424.37;630474;225;67467;-68
2022/09/04 01:54:10;;;;;;;;;;;;;;;22.45;79.58;97419.02;630672;225;64644;-68
2022/09/04 01:56:39;;;;;;;;;;;;;;;22.45;79.59;97420.89;630497;225;65147;-69
2022/09/04 01:59:08;;;;;;;;;;;;;;;22.45;79.58;97415.54;630436;225;66856;-68
2022/09/04 02:01:47;;;;;;;;;;;;;;;22.44;79.58;97424.66;629699;225;64555;-68
2022/09/04 02:04:19;;;;;;;;;;;;;;;22.44;79.60;97420.09;630649;225;64817;-68
2022/09/04 02:06:58;;;;;;;;;;;;;;;22.45;79.50;97424.37;630644;225;68454;-68
2022/09/04 02:09:27;;;;;;;;;;;;;;;22.44;79.51;97422.77;630491;225;64788;-68
2022/09/04 02:12:05;;;;;;;;;;;;;;;22.45;79.50;97434.28;630352;225;62873;-68
2022/09/04 02:14:38;;;;;;;;;;;;;;;22.45;79.35;97440.44;630629;225;67992;-68
2022/09/04 02:17:11;;;;;;;;;;;;;;;22.45;79.45;97428.92;630670;225;64884;-68
2022/09/04 02:19:52;;;;;;;;;;;;;;;22.45;79.39;97428.92;630663;225;65999;-68
2022/09/04 02:22:21;;;;;;;;;;;;;;;22.44;79.39;97427.34;630446;225;64940;-68
2022/09/04 02:24:59;;;;;;;;;;;;;;;22.43;79.52;97429.22;630585;225;64776;-68
2022/09/04 02:27:28;;;;;;;;;;;;;;;22.44;79.46;97432.69;630459;225;64980;-68
2022/09/04 02:30:00;;;;;;;;;;;;;;;22.43;79.46;97425.73;630548;225;64934;-68
2022/09/04 02:32:42;;;;;;;;;;;;;;;22.43;79.44;97431.89;630700;225;64326;-68
2022/09/04 02:35:11;;;;;;;;;;;;;;;22.43;79.43;97431.89;630708;225;65949;-68
2022/09/04 02:37:48;;;;;;;;;;;;;;;22.42;79.42;97421.44;630533;225;64985;-68
2022/09/04 02:40:34;;;;;;;;;;;;;;;22.43;79.48;97420.38;630487;225;65128;-68
2022/09/04 02:43:20;;;;;;;;;;;;;;;22.41;79.45;97420.64;630653;225;66394;-68
2022/09/04 02:46:05;;;;;;;;;;;;;;;22.42;79.43;97418.76;630665;225;66838;-68
2022/09/04 02:48:51;;;;;;;;;;;;;;;22.41;79.46;97423.32;630664;225;64860;-68
2022/09/04 02:51:34;;;;;;;;;;;;;;;22.42;79.45;97424.12;630655;225;62990;-68
2022/09/04 02:54:12;;;;;;;;;;;;;;;22.41;79.45;97426.00;630561;225;67182;-68
2022/09/04 02:56:47;;;;;;;;;;;;;;;22.40;79.40;97421.73;630554;225;64581;-68
2022/09/04 02:59:16;;;;;;;;;;;;;;;22.41;79.45;97417.17;630744;225;63419;-68
2022/09/04 03:01:51;;;;;;;;;;;;;;;22.39;79.42;97418.22;630461;225;66600;-68
2022/09/04 03:04:32;;;;;;;;;;;;;;;22.41;79.38;97422.52;630727;225;66717;-68
2022/09/04 03:07:02;;;;;;;;;;;;;;;22.41;79.46;97417.17;630693;225;62995;-68
2022/09/04 03:09:43;;;;;;;;;;;;;;;22.39;79.47;97415.55;629838;225;65253;-68
2022/09/04 03:12:28;;;;;;;;;;;;;;;22.40;79.37;97419.05;630585;225;64656;-68
2022/09/04 03:15:09;;;;;;;;;;;;;;;22.40;79.35;97413.69;630698;225;62825;-68
2022/09/04 03:17:45;;;;;;;;;;;;;;;22.39;79.37;97412.86;630724;225;66770;-70
2022/09/04 03:20:12;;;;;;;;;;;;;;;22.38;79.37;97411.27;630619;225;70084;-70
2022/09/04 03:22:42;;;;;;;;;;;;;;;22.39;79.28;97415.55;630287;225;65234;-70
2022/09/04 03:25:27;;;;;;;;;;;;;;;22.39;79.32;97414.74;626112;225;68091;-70
2022/09/04 03:27:55;;;;;;;;;;;;;;;22.39;79.34;97410.19;630686;225;67861;-68
2022/09/04 03:30:22;;;;;;;;;;;;;;;22.39;79.30;97414.74;630676;225;65297;-68
2022/09/04 03:33:07;;;;;;;;;;;;;;;22.38;79.24;97411.27;630647;225;64925;-68
2022/09/04 03:35:36;;;;;;;;;;;;;;;22.40;79.28;97416.37;630748;225;64834;-68
2022/09/04 03:38:20;;;;;;;;;;;;;;;22.39;79.31;97412.06;630659;225;65955;-68
2022/09/04 03:41:03;;;;;;;;;;;;;;;22.38;79.21;97403.23;630445;225;67103;-68
2022/09/04 03:43:32;;;;;;;;;;;;;;;22.38;79.23;97405.91;630346;225;64844;-68
2022/09/04 03:46:04;;;;;;;;;;;;;;;22.38;79.16;97403.23;630689;225;65119;-69
2022/09/04 03:48:49;;;;;;;;;;;;;;;22.38;79.15;97405.91;630790;224;67145;-70
2022/09/04 03:51:24;;;;;;;;;;;;;;;22.38;79.24;97418.50;631486;224;65517;-68
2022/09/04 03:53:55;;;;;;;;;;;;;;;22.37;79.17;97422.23;631295;224;65330;-69
2022/09/04 03:56:27;;;;;;;;;;;;;;;22.37;79.19;97420.39;631474;224;67326;-70
2022/09/04 03:59:05;;;;;;;;;;;;;;;22.38;79.15;97424.66;631443;224;65127;-69
2022/09/04 04:01:40;;;;;;;;;;;;;;;22.38;79.31;97429.22;631459;224;64039;-70
2022/09/04 04:04:26;;;;;;;;;;;;;;;22.38;79.24;97440.73;631426;224;65907;-69
2022/09/04 04:07:13;;;;;;;;;;;;;;;22.38;79.24;97442.61;631463;224;65804;-70
2022/09/04 04:09:42;;;;;;;;;;;;;;;22.37;79.15;97443.66;631451;224;62826;-70
2022/09/04 04:12:29;;;;;;;;;;;;;;;22.37;79.22;97451.69;631259;224;65917;-68
2022/09/04 04:15:05;;;;;;;;;;;;;;;22.37;79.19;97455.20;631244;224;67130;-68
2022/09/04 04:17:34;;;;;;;;;;;;;;;22.36;79.17;97456.25;631475;224;64902;-68
2022/09/04 04:20:23;;;;;;;;;;;;;;;22.37;79.12;97459.72;631461;224;64420;-68
2022/09/04 04:22:52;;;;;;;;;;;;;;;22.36;79.18;97463.48;631444;224;66750;-72
2022/09/04 04:25:24;;;;;;;;;;;;;;;22.36;79.14;97466.96;631118;224;62800;-71
2022/09/04 04:27:52;;;;;;;;;;;;;;;22.36;79.06;97464.28;631298;224;67516;-71
2022/09/04 04:30:20;;;;;;;;;;;;;;;22.36;79.14;97466.16;631509;224;67011;-71
2022/09/04 04:32:49;;;;;;;;;;;;;;;22.35;79.07;97459.22;631423;224;65004;-71
2022/09/04 04:35:34;;;;;;;;;;;;;;;22.35;79.13;97473.40;631436;224;67114;-71
2022/09/04 04:38:12;;;;;;;;;;;;;;;22.35;79.02;97473.40;631459;224;66884;-71
2022/09/04 04:40:58;;;;;;;;;;;;;;;22.35;79.02;97476.08;631182;224;63848;-71
2022/09/04 04:43:27;;;;;;;;;;;;;;;22.35;79.10;97478.75;631491;224;65028;-71
2022/09/04 04:45:57;;;;;;;;;;;;;;;22.35;78.98;97480.64;631375;224;64891;-71
2022/09/04 04:48:27;;;;;;;;;;;;;;;22.33;79.00;97486.25;631439;224;64652;-71
2022/09/04 04:51:14;;;;;;;;;;;;;;;22.34;78.94;97487.88;631442;224;67116;-71
2022/09/04 04:53:58;;;;;;;;;;;;;;;22.34;78.90;97487.05;631283;224;64877;-71
2022/09/04 04:56:33;;;;;;;;;;;;;;;22.34;78.84;97493.23;620204;224;62934;-69
2022/09/04 04:59:19;;;;;;;;;;;;;;;22.34;78.87;97489.72;590776;240;68051;-69
2022/09/04 05:01:45;;;;;;;;;;;;;;;22.34;78.87;97489.72;590359;240;66582;-69
2022/09/04 05:04:17;;;;;;;;;;;;;;;22.34;78.90;97492.40;590757;237;66007;-69
2022/09/04 05:06:52;;;;;;;;;;;;;;;22.33;78.83;97494.28;590742;237;67121;-68
2022/09/04 05:09:28;;;;;;;;;;;;;;;22.33;78.91;97502.31;590585;240;64972;-68
2022/09/04 05:12:03;;;;;;;;;;;;;;;22.33;78.76;97501.52;590794;240;62751;-69
2022/09/04 05:14:44;;;;;;;;;;;;;;;22.33;78.68;97509.55;590773;240;66034;-68
2022/09/04 05:17:19;;;;;;;;;;;;;;;22.33;78.73;97518.38;590720;240;67227;-68
2022/09/04 05:20:04;;;;;;;;;;;;;;;22.33;78.67;97523.73;590767;237;62816;-68
2022/09/04 05:22:36;;;;;;;;;;;;;;;22.32;78.61;97532.84;590786;240;67177;-70
2022/09/04 05:25:14;;;;;;;;;;;;;;;22.33;78.64;97517.58;590758;240;67114;-70
2022/09/04 05:27:49;;;;;;;;;;;;;;;22.32;78.49;97511.42;590690;240;65293;-68
2022/09/04 05:30:21;;;;;;;;;;;;;;;22.31;78.66;97517.83;590712;240;64881;-69
2022/09/04 05:32:56;;;;;;;;;;;;;;;22.31;78.59;97525.87;591089;236;66947;-71
2022/09/04 05:35:26;;;;;;;;;;;;;;;22.31;78.52;97519.72;590796;240;65076;-71
2022/09/04 05:37:55;;;;;;;;;;;;;;;22.31;78.38;97522.39;588332;240;64650;-71
2022/09/04 05:40:25;;;;;;;;;;;;;;;22.30;78.46;97523.47;590760;240;66912;-71
2022/09/04 05:43:10;;;;;;;;;;;;;;;22.30;78.43;97523.47;590685;240;65163;-71
2022/09/04 05:45:56;;;;;;;;;;;;;;;22.30;78.46;97521.59;590763;240;66239;-71
2022/09/04 05:48:34;;;;;;;;;;;;;;;22.31;78.50;97525.07;590750;240;64463;-71
2022/09/04 05:51:06;;;;;;;;;;;;;;;22.30;78.37;97516.23;590769;240;65125;-71
2022/09/04 05:53:35;;;;;;;;;;;;;;;22.31;78.44;97514.36;590757;240;68058;-71
2022/09/04 05:56:21;;;;;;;;;;;;;;;22.29;78.43;97517.32;591150;238;66827;-71
2022/09/04 05:58:50;;;;;;;;;;;;;;;22.29;78.31;97509.28;594978;238;65254;-71
2022/09/04 06:01:25;;;;;;;;;;;;;;;22.28;78.32;97515.69;594838;238;67932;-71
2022/09/04 06:03:56;;;;;;;;;;;;;;;22.29;78.40;97511.97;595120;238;66960;-70
2022/09/04 06:06:26;;;;;;;;;;;;;;;22.30;78.42;97524.27;594814;238;62760;-70
2022/09/04 06:08:57;;;;;;;;;;;;;;;22.29;78.26;97532.55;594982;238;67072;-70
2022/09/04 06:11:26;;;;;;;;;;;;;;;22.31;78.34;97525.07;594811;238;64891;-70
2022/09/04 06:13:57;;;;;;;;;;;;;;;22.29;78.21;97528.03;595012;238;64902;-70
2022/09/04 06:16:38;;;;;;;;;;;;;;;22.28;77.26;97518.38;595017;238;67226;-70
2022/09/04 06:19:07;;;;;;;;;;;;;;;22.28;77.80;97515.69;595026;238;64597;-70
2022/09/04 06:21:37;;;;;;;;;;;;;;;22.30;78.72;97518.12;594979;238;63772;-70
2022/09/04 06:24:06;;;;;;;;;;;;;;;22.30;78.40;97521.59;594982;238;67040;-70
2022/09/04 06:26:47;;;;;;;;;;;;;;;22.30;78.28;97516.23;594665;238;66743;-70
2022/09/04 06:29:33;;;;;;;;;;;;;;;22.31;78.27;97511.68;595018;238;62807;-70
2022/09/04 06:32:11;;;;;;;;;;;;;;;22.30;78.27;97513.56;594960;238;67242;-69
2022/09/04 06:34:41;;;;;;;;;;;;;;;22.31;78.17;97520.51;594983;238;67193;-69
2022/09/04 06:37:22;;;;;;;;;;;;;;;22.31;78.26;97523.19;594974;238;66065;-69
2022/09/04 06:39:56;;;;;;;;;;;;;;;22.32;78.21;97521.34;594280;238;64846;-68
2022/09/04 06:42:43;;;;;;;;;;;;;;;22.32;78.16;97522.14;594985;238;66901;-68
2022/09/04 06:45:27;;;;;;;;;;;;;;;22.33;78.16;97517.58;594949;238;63099;-68
2022/09/04 06:47:59;;;;;;;;;;;;;;;22.32;78.18;97503.39;588203;241;64866;-68
2022/09/04 06:50:40;;;;;;;;;;;;;;;22.32;78.07;97484.66;592962;238;66988;-68
2022/09/04 06:53:09;;;;;;;;;;;;;;;22.32;78.14;97490.01;595010;238;65260;-68
2022/09/04 06:55:41;;;;;;;;;;;;;;;22.33;78.12;97494.28;594744;238;64781;-67
2022/09/04 06:58:18;;;;;;;;;;;;;;;22.32;78.11;97492.69;590827;238;64834;-68
2022/09/04 07:00:52;;;;;;;;;;;;;;;22.33;78.05;97496.95;590524;240;65381;-68
2022/09/04 07:03:21;;;;;;;;;;;;;;;22.34;78.04;97503.94;590718;240;67082;-68
2022/09/04 07:05:50;;;;;;;;;;;;;;;22.33;78.02;97502.31;590625;240;64937;-68
2022/09/04 07:08:36;;;;;;;;;;;;;;;22.34;78.01;97495.91;590749;240;62525;-68
2022/09/04 07:11:14;;;;;;;;;;;;;;;22.34;78.00;97498.58;590765;240;64875;-68
2022/09/04 07:14:03;;;;;;;;;;;;;;;22.34;77.90;97495.08;590609;240;64884;-67
2022/09/04 07:16:41;;;;;;;;;;;;;;;22.35;77.92;97491.34;590576;240;62918;-68
2022/09/04 07:19:17;;;;;;;;;;;;;;;22.35;77.93;97494.02;590825;240;64777;-68
2022/09/04 07:21:50;;;;;;;;;;;;;;;22.34;77.84;97492.40;590825;240;66952;-68
2022/09/04 07:24:29;;;;;;;;;;;;;;;22.35;77.92;97488.67;590805;240;65413;-67
2022/09/04 07:27:14;;;;;;;;;;;;;;;22.34;77.73;97490.55;590771;240;66799;-68
2022/09/04 07:29:43;;;;;;;;;;;;;;;22.35;77.70;97484.11;590820;240;64776;-68
2022/09/04 07:32:31;;;;;;;;;;;;;;;22.35;77.61;97497.50;590531;240;65177;-68
2022/09/04 07:35:09;;;;;;;;;;;;;;;22.36;77.74;97496.42;590723;240;64603;-69
2022/09/04 07:37:42;;;;;;;;;;;;;;;22.36;77.66;97491.06;590801;240;64685;-69
2022/09/04 07:40:17;;;;;;;;;;;;;;;22.36;77.71;97496.42;590813;240;62805;-69
2022/09/04 07:42:52;;;;;;;;;;;;;;;22.37;77.73;97499.89;590781;240;66514;-69
2022/09/04 07:45:28;;;;;;;;;;;;;;;22.35;77.83;97497.50;590785;240;66518;-69
2022/09/04 07:47:57;;;;;;;;;;;;;;;22.36;77.84;97495.62;590740;240;63986;-69
2022/09/04 07:50:26;;;;;;;;;;;;;;;22.36;78.00;97495.62;590981;237;67057;-68
2022/09/04 07:53:13;;;;;;;;;;;;;;;22.36;77.92;97498.30;590763;240;67243;-68
2022/09/04 07:55:42;;;;;;;;;;;;;;;22.36;77.91;97495.62;590768;240;62778;-68
2022/09/04 07:58:12;;;;;;;;;;;;;;;22.36;77.84;97493.73;590754;239;64939;-68
2022/09/04 08:00:58;;;;;;;;;;;;;;;22.36;77.80;97493.73;590771;240;66898;-68
2022/09/04 08:03:30;;;;;;;;;;;;;;;22.36;77.76;97485.70;590794;240;65247;-68
2022/09/04 08:06:13;;;;;;;;;;;;;;;22.36;77.77;97484.91;590537;240;44417;-68
2022/09/04 08:08:45;;;;;;;;;;;;;;;22.36;77.85;97482.23;590765;240;66962;-68
2022/09/04 08:11:23;;;;;;;;;;;;;;;22.36;77.92;97485.70;590580;240;65311;-68
2022/09/04 08:13:52;;;;;;;;;;;;;;;22.36;77.80;97491.06;590552;240;64541;-68
2022/09/04 08:16:21;;;;;;;;;;;;;;;22.36;77.79;97491.06;589637;240;66776;-68
2022/09/04 08:18:51;;;;;;;;;;;;;;;22.37;77.73;97491.86;590528;240;62740;-68
2022/09/04 08:21:23;;;;;;;;;;;;;;;22.37;77.72;97497.22;590791;240;67325;-68
2022/09/04 08:24:09;;;;;;;;;;;;;;;22.37;77.74;97506.08;590762;240;67852;-68
2022/09/04 08:26:38;;;;;;;;;;;;;;;22.37;77.63;97503.40;590772;240;64008;-69
2022/09/04 08:29:16;;;;;;;;;;;;;;;22.37;77.71;97498.05;590673;240;65845;-69
2022/09/04 08:32:06;;;;;;;;;;;;;;;22.36;77.69;97496.42;590771;237;64832;-69
2022/09/04 08:34:36;;;;;;;;;;;;;;;22.37;77.84;97487.33;590833;240;65254;-70
2022/09/04 08:37:17;;;;;;;;;;;;;;;22.38;77.75;97480.09;590768;240;65877;-70
2022/09/04 08:39:52;;;;;;;;;;;;;;;22.37;77.84;97483.83;590896;240;66101;-71
2022/09/04 08:42:38;;;;;;;;;;;;;;;22.36;77.83;97483.03;590774;240;66086;-70
2022/09/04 08:45:14;;;;;;;;;;;;;;;22.36;77.84;97496.42;590751;240;68023;-70
2022/09/04 08:48:01;;;;;;;;;;;;;;;22.36;77.74;97496.42;590773;240;64848;-70
2022/09/04 08:50:42;;;;;;;;;;;;;;;22.36;77.72;97495.62;590772;240;65993;-70
2022/09/04 08:53:28;;;;;;;;;;;;;;;22.37;77.76;97494.54;590533;240;67123;-70
2022/09/04 08:56:17;;;;;;;;;;;;;;;22.36;77.77;97485.70;590668;239;67930;-69
2022/09/04 08:59:03;;;;;;;;;;;;;;;22.36;77.74;97495.62;570068;245;65431;-70
2022/09/04 09:01:32;;;;;;;;;;;;;;;22.35;77.72;97497.50;570178;246;67161;-70
2022/09/04 09:04:04;;;;;;;;;;;;;;;22.36;77.84;97504.45;580292;240;66282;-70
2022/09/04 09:06:50;;;;;;;;;;;;;;;22.36;77.83;97512.48;588846;240;66528;-70
2022/09/04 09:09:37;;;;;;;;;;;;;;;22.35;77.81;97505.53;590760;240;67183;-70
2022/09/04 09:12:23;;;;;;;;;;;;;;;22.36;77.74;97509.01;590769;240;65185;-70
2022/09/04 09:15:08;;;;;;;;;;;;;;;22.35;77.74;97505.53;590761;240;64131;-71
2022/09/04 09:17:40;;;;;;;;;;;;;;;22.35;77.82;97507.41;590792;240;66062;-70
2022/09/04 09:20:26;;;;;;;;;;;;;;;22.35;77.74;97504.73;590730;237;66881;-70
2022/09/04 09:23:11;;;;;;;;;;;;;;;22.34;77.74;97493.23;590743;240;63032;-70
2022/09/04 09:25:41;;;;;;;;;;;;;;;22.35;77.78;97494.82;590761;240;65006;-70
2022/09/04 09:28:10;;;;;;;;;;;;;;;22.35;77.73;97505.53;590598;240;66916;-69
2022/09/04 09:30:39;;;;;;;;;;;;;;;22.36;77.72;97509.80;590153;240;65161;-71
2022/09/04 09:33:25;;;;;;;;;;;;;;;22.34;77.67;97501.26;589779;240;65543;-71
2022/09/04 09:36:03;;;;;;;;;;;;;;;22.35;77.58;97499.38;590749;240;66953;-69
2022/09/04 09:38:49;;;;;;;;;;;;;;;22.36;77.62;97500.98;590754;240;65143;-70
2022/09/04 09:41:36;;;;;;;;;;;;;;;22.35;77.72;97491.34;590747;240;65190;-70
2022/09/04 09:44:05;;;;;;;;;;;;;;;22.35;77.67;97494.82;590800;240;65776;-68
2022/09/04 09:46:37;;;;;;;;;;;;;;;22.35;77.62;97500.17;590889;240;64030;-70
2022/09/04 09:49:06;;;;;;;;;;;;;;;22.35;77.59;97496.70;590753;240;64873;-70
2022/09/04 09:51:41;;;;;;;;;;;;;;;22.35;77.72;97494.82;590725;240;64852;-70
2022/09/04 09:54:11;;;;;;;;;;;;;;;22.34;77.65;97501.26;599327;234;66064;-70
2022/09/04 09:56:40;;;;;;;;;;;;;;;22.34;77.67;97498.58;604603;234;67986;-70
2022/09/04 09:59:26;;;;;;;;;;;;;;;22.35;77.64;97500.17;604597;234;67429;-70
2022/09/04 10:02:01;;;;;;;;;;;;;;;22.35;77.67;97499.38;604612;234;65179;-70
2022/09/04 10:04:31;;;;;;;;;;;;;;;22.34;77.68;97503.94;604539;234;64953;-70
2022/09/04 10:07:00;;;;;;;;;;;;;;;22.35;77.72;97502.05;604588;234;66710;-70
2022/09/04 10:09:42;;;;;;;;;;;;;;;22.34;77.66;97505.78;604705;234;62795;-68
2022/09/04 10:12:14;;;;;;;;;;;;;;;22.35;77.76;97507.41;604113;228;67058;-68
2022/09/04 10:14:43;;;;;;;;;;;;;;;22.34;77.86;97498.58;594826;235;67073;-69
2022/09/04 10:17:29;;;;;;;;;;;;;;;22.34;77.83;97487.88;603914;235;65975;-69
2022/09/04 10:19:59;;;;;;;;;;;;;;;22.34;77.68;97471.80;603975;235;65010;-68
2022/09/04 10:22:44;;;;;;;;;;;;;;;22.35;77.69;97472.60;604266;229;66781;-69
2022/09/04 10:25:25;;;;;;;;;;;;;;;22.35;77.79;97483.31;603956;235;66257;-70
2022/09/04 10:27:57;;;;;;;;;;;;;;;22.34;77.68;97477.16;603954;235;67455;-70
2022/09/04 10:30:26;;;;;;;;;;;;;;;22.34;77.71;97479.84;603923;235;65149;-70
2022/09/04 10:33:04;;;;;;;;;;;;;;;22.34;77.77;97477.16;603908;234;62795;-70
2022/09/04 10:35:34;;;;;;;;;;;;;;;22.34;77.69;97469.13;603966;235;65833;-67
2022/09/04 10:38:06;;;;;;;;;;;;;;;22.35;77.75;97469.92;604077;235;67160;-68
2022/09/04 10:40:50;;;;;;;;;;;;;;;22.34;77.65;97461.09;603972;235;64948;-68
2022/09/04 10:43:22;;;;;;;;;;;;;;;22.34;77.80;97463.77;603207;235;67073;-67
2022/09/04 10:45:57;;;;;;;;;;;;;;;22.33;77.83;97470.18;603923;235;66921;-68
2022/09/04 10:48:41;;;;;;;;;;;;;;;22.34;77.73;97469.13;603891;235;63874;-68
2022/09/04 10:51:14;;;;;;;;;;;;;;;22.34;77.74;97462.95;588423;240;66791;-68
2022/09/04 10:53:51;;;;;;;;;;;;;;;22.35;77.84;97468.05;599537;235;64977;-68
2022/09/04 10:56:29;;;;;;;;;;;;;;;22.33;77.81;97470.18;603706;235;63811;-68
2022/09/04 10:58:58;;;;;;;;;;;;;;;22.34;77.74;97471.80;603887;235;67407;-68
2022/09/04 11:01:34;;;;;;;;;;;;;;;22.34;77.81;97470.98;603713;235;66807;-69
2022/09/04 11:04:12;;;;;;;;;;;;;;;22.34;77.74;97455.74;603128;235;63081;-69
2022/09/04 11:06:54;;;;;;;;;;;;;;;22.34;77.70;97457.59;603671;235;67086;-69
2022/09/04 11:09:25;;;;;;;;;;;;;;;22.34;77.68;97452.23;603971;235;67199;-68
2022/09/04 11:12:08;;;;;;;;;;;;;;;22.34;77.78;97461.09;603928;235;64057;-69
2022/09/04 11:14:49;;;;;;;;;;;;;;;22.34;77.89;97449.55;604022;235;64946;-69
2022/09/04 11:17:21;;;;;;;;;;;;;;;22.34;77.78;97461.09;603784;235;66881;-69
2022/09/04 11:20:02;;;;;;;;;;;;;;;22.33;77.72;97448.76;603597;235;63876;-69
2022/09/04 11:22:40;;;;;;;;;;;;;;;22.33;77.71;97456.80;603944;235;66948;-68
2022/09/04 11:25:12;;;;;;;;;;;;;;;22.33;77.80;97462.15;603616;235;67766;-69
2022/09/04 11:27:44;;;;;;;;;;;;;;;22.33;77.75;97464.83;603777;235;64983;-68
2022/09/04 11:30:13;;;;;;;;;;;;;;;22.34;77.74;97465.63;603979;235;66290;-69
2022/09/04 11:32:42;;;;;;;;;;;;;;;22.35;77.75;97475.28;603892;235;66956;-68
2022/09/04 11:35:09;;;;;;;;;;;;;;;;;;603974;235;63820;-69
2022/09/04 11:37:38;;;;;;;;;;;;;;;22.34;77.83;97465.63;604040;235;63851;-69
2022/09/04 11:40:16;;;;;;;;;;;;;;;22.34;77.78;97465.63;604046;235;67301;-68
2022/09/04 11:42:54;;;;;;;;;;;;;;;22.34;77.81;97465.63;603997;235;63834;-68
2022/09/04 11:45:25;;;;;;;;;;;;;;;22.34;77.78;97455.74;604006;235;64342;-69
2022/09/04 11:47:57;;;;;;;;;;;;;;;22.34;77.79;97466.45;603684;235;66987;-68
2022/09/04 11:50:39;;;;;;;;;;;;;;;22.34;77.74;97460.27;603968;235;62821;-69
2022/09/04 11:53:14;;;;;;;;;;;;;;;22.33;77.77;97451.44;604007;235;67281;-68
2022/09/04 11:55:49;;;;;;;;;;;;;;;22.34;77.88;97463.77;603721;235;65494;-68
2022/09/04 11:58:35;;;;;;;;;;;;;;;22.33;77.94;97462.15;603991;235;65135;-68
2022/09/04 12:01:15;;;;;;;;;;;;;;;22.32;77.96;97463.23;604001;235;64753;-68
2022/09/04 12:03:48;;;;;;;;;;;;;;;22.33;77.85;97451.44;604000;235;67257;-68
2022/09/04 12:06:36;;;;;;;;;;;;;;;22.33;77.88;97453.31;603917;235;63051;-68
2022/09/04 12:09:05;;;;;;;;;;;;;;;22.33;77.89;97454.11;603963;235;66948;-68
2022/09/04 12:11:40;;;;;;;;;;;;;;;22.33;77.92;97454.11;603887;235;66950;-68
2022/09/04 12:14:10;;;;;;;;;;;;;;;22.33;77.98;97458.67;603949;235;62959;-69
2022/09/04 12:16:55;;;;;;;;;;;;;;;22.32;77.93;97457.08;603827;235;67333;-69
2022/09/04 12:19:42;;;;;;;;;;;;;;;22.32;77.95;97457.88;603958;235;67077;-69
2022/09/04 12:22:30;;;;;;;;;;;;;;;22.32;77.95;97451.72;603941;235;66049;-68
2022/09/04 12:24:58;;;;;;;;;;;;;;;22.32;77.97;97447.16;603976;235;67114;-68
2022/09/04 12:27:31;;;;;;;;;;;;;;;22.31;78.02;97445.54;603087;235;68194;-68
2022/09/04 12:30:06;;;;;;;;;;;;;;;22.32;77.95;97444.48;603961;235;66088;-68
2022/09/04 12:32:47;;;;;;;;;;;;;;;22.32;77.97;97452.52;603916;235;68074;-68
2022/09/04 12:35:16;;;;;;;;;;;;;;;22.32;78.04;97455.20;603980;235;66919;-68
2022/09/04 12:37:49;;;;;;;;;;;;;;;22.32;78.07;97447.16;603735;234;62914;-68
2022/09/04 12:40:34;;;;;;;;;;;;;;;22.32;78.06;97454.40;603558;235;65088;-68
2022/09/04 12:43:12;;;;;;;;;;;;;;;22.32;78.01;97457.08;603954;235;66926;-69
2022/09/04 12:45:57;;;;;;;;;;;;;;;22.33;77.96;97448.76;603951;235;70379;-68
2022/09/04 12:48:42;;;;;;;;;;;;;;;22.31;77.98;97450.89;603989;235;64890;-68
2022/09/04 12:51:11;;;;;;;;;;;;;;;22.32;77.94;97441.81;603909;235;67087;-69
2022/09/04 12:53:46;;;;;;;;;;;;;;;22.32;77.93;97438.34;603739;235;65135;-68
2022/09/04 12:56:25;;;;;;;;;;;;;;;22.31;77.93;97440.19;603698;235;67417;-69
2022/09/04 12:59:00;;;;;;;;;;;;;;;22.30;77.91;97435.91;599025;225;64563;-68
2022/09/04 13:01:36;;;;;;;;;;;;;;;22.31;77.99;97439.39;604603;234;65084;-69
2022/09/04 13:07:05;;;;;;;;;;;;;;;22.33;77.97;97448.76;594908;231;37763;-68
2022/09/04 13:09:46;;;;;;;;;;;;;;;22.32;77.95;97441.81;594853;238;65994;-69
2022/09/04 13:12:18;;;;;;;;;;;;;;;22.32;78.02;97452.52;594620;237;68541;-68
2022/09/04 13:14:57;;;;;;;;;;;;;;;22.31;78.04;97453.57;594857;238;64868;-68
2022/09/04 13:17:42;;;;;;;;;;;;;;;22.31;78.12;97456.25;594860;238;65078;-68
2022/09/04 13:20:11;;;;;;;;;;;;;;;22.32;78.09;97446.37;594823;238;68056;-67
2022/09/04 13:22:45;;;;;;;;;;;;;;;22.30;78.07;97449.30;594828;238;65792;-68
2022/09/04 13:25:30;;;;;;;;;;;;;;;22.31;78.06;97450.89;594685;236;63034;-69
2022/09/04 13:28:11;;;;;;;;;;;;;;;22.32;77.99;97444.48;595007;238;64563;-68
2022/09/04 13:30:42;;;;;;;;;;;;;;;22.32;77.97;97436.45;594554;238;64827;-69
2022/09/04 13:33:12;;;;;;;;;;;;;;;22.32;77.99;97435.66;594704;236;65064;-69
2022/09/04 13:35:41;;;;;;;;;;;;;;;22.32;78.08;97446.37;594851;238;67112;-68